OIMB  Birjand Airport

Add Bookmark

Birjand, Iran

Status
Operational
Latitude Longitude
32° 53' 53" N 59° 15' 57" E
32.898056 59.266111
Local (DST + 5) UTC (GMT + 4)
Feb 27, 2015 04:33 Feb 27, 2015 13:03
Sunrise-Sunset Local UTC
Begin Civil Twilight 05:37 02:07
Sunrise 06:01 02:31
Sunset 05:29 13:59
End Civil Twilight 05:54 14:24

Current Weather

METAR Observed VFR
OIMB 271200Z 03006KT 9999 FEW040 07/M08 Q1019 Fri, Feb 27, 2015 @ 12:00 UTC
(1 Hour, 3 Minutes ago)
Visual Flight Rules
Wind Visibility Clouds Conditions
030° at 6 knots (11 kph) 10 km or more
  • Few at 4,000' AGL
  • No significant weather
Temperatures Readings Precipitation
Current Temp 7°C (45°F)
Dewpoint -8°C (18°F)
Humidity 34%
Altimeter 30.09"Hg
Sea Level Pressure 1019mb
Field Elevation 4891.73'
None Recorded

Additional weather within a 185.2km radius of OIMB

Map ICAO Location
OIMD 170.2km N (342°)

24 Hour Weather History

Loading
-

24 Hour Weather Graphs

Loading
-

CheckWX.com is intended as a tool to help pilots better visualize weather data. It is not intended as a substitute for an official weather briefing obtained from a Flight Service Station. CheckWX.com does not meet the FAA requirements for an official pre-flight weather briefing. Therefore, it's important that pilots still call and obtain an official FSS pre-flight weather briefing.